Time;durP1;ratioP1;P1;durP2;ratioP2;P2;SDS_P1;SDS_P2;PMS_P1;PMS_P2;Temp;Humidity;BMP_temperature;BMP_pressure;BME280_temperature;BME280_humidity;BME280_pressure;Samples;Min_cycle;Max_cycle;Signal;HPM_P1;HPM_P2
2022/07/21 00:02:09;;;;;;;4.55;4.45;;;26.50;62.70;;;;;;5071768;28;44228;-70
2022/07/21 00:04:37;;;;;;;4.72;4.53;;;26.30;63.00;;;;;;5089732;27;44936;-69
2022/07/21 00:07:05;;;;;;;4.53;4.43;;;26.10;63.50;;;;;;5089314;27;44014;-70
2022/07/21 00:09:35;;;;;;;4.20;4.10;;;25.90;64.20;;;;;;5089609;27;43956;-70
2022/07/21 00:12:03;;;;;;;4.82;4.63;;;25.80;64.70;;;;;;5064339;28;43907;-70
2022/07/21 00:14:32;;;;;;;4.25;4.15;;;25.60;65.00;;;;;;5064001;28;46335;-69
2022/07/21 00:17:00;;;;;;;4.40;4.30;;;25.50;65.30;;;;;;5082520;27;43895;-69
2022/07/21 00:19:28;;;;;;;4.05;3.95;;;25.50;65.70;;;;;;5082771;27;43995;-70
2022/07/21 00:21:56;;;;;;;4.07;3.97;;;25.40;65.90;;;;;;5082698;27;43979;-70
2022/07/21 00:24:24;;;;;;;4.23;4.13;;;25.30;66.00;;;;;;5082246;27;44044;-71
2022/07/21 00:26:52;;;;;;;4.43;4.32;;;25.30;66.20;;;;;;5082433;27;43903;-70
2022/07/21 00:29:20;;;;;;;4.20;4.10;;;25.30;66.40;;;;;;5082432;27;43403;-69
2022/07/21 00:31:49;;;;;;;4.40;4.30;;;25.20;66.40;;;;;;5082965;27;43924;-70
2022/07/21 00:34:17;;;;;;;4.28;4.18;;;25.20;66.70;;;;;;5082681;27;43911;-69
2022/07/21 00:36:45;;;;;;;4.57;4.45;;;25.20;67.10;;;;;;5070449;27;45097;-69
2022/07/21 00:39:13;;;;;;;4.10;4.00;;;25.20;67.00;;;;;;5070760;27;43376;-70
2022/07/21 00:41:41;;;;;;;4.47;4.38;;;25.30;66.70;;;;;;5088747;27;43968;-70
2022/07/21 00:44:20;;;;;;;4.85;4.75;;;25.50;66.90;;;;;;5088898;27;43940;-69
2022/07/21 00:46:49;;;;;;;4.35;4.25;;;25.60;65.50;;;;;;5089088;27;44026;-69
2022/07/21 00:49:17;;;;;;;4.30;4.20;;;25.80;65.00;;;;;;5097848;27;43862;-69
2022/07/21 00:51:45;;;;;;;4.43;4.22;;;25.90;64.50;;;;;;5109194;27;43418;-69
2022/07/21 00:54:13;;;;;;;4.45;4.35;;;26.10;64.20;;;;;;5089582;27;44943;-70
2022/07/21 00:56:41;;;;;;;4.15;4.05;;;26.20;63.70;;;;;;5108234;27;43845;-69
2022/07/21 00:59:09;;;;;;;4.55;4.40;;;26.40;63.40;;;;;;5089846;27;43859;-70
2022/07/21 01:01:37;;;;;;;4.38;4.28;;;26.50;62.90;;;;;;5108527;27;43994;-69
2022/07/21 01:04:07;;;;;;;4.53;4.43;;;26.50;62.70;;;;;;5108101;27;43842;-69
2022/07/21 01:06:35;;;;;;;4.22;4.03;;;26.60;62.80;;;;;;5108087;27;43883;-70
2022/07/21 01:09:03;;;;;;;5.72;5.40;;;26.60;62.50;;;;;;5108308;27;43904;-70
2022/07/21 01:11:38;;;;;;;5.60;5.40;;;26.50;62.70;;;;;;5108654;27;44022;-70
2022/07/21 01:14:06;;;;;;;5.65;5.38;;;26.30;63.10;;;;;;5108145;27;43878;-70
2022/07/21 01:16:34;;;;;;;5.45;5.25;;;26.10;63.70;;;;;;5108060;27;43896;-69
2022/07/21 01:19:02;;;;;;;5.63;5.38;;;25.90;64.50;;;;;;5108140;27;43378;-70
2022/07/21 01:21:33;;;;;;;5.07;4.88;;;25.70;64.90;;;;;;5108002;27;44240;-69
2022/07/21 01:24:01;;;;;;;5.35;5.15;;;25.60;65.20;;;;;;5107764;27;45120;-70
2022/07/21 01:26:29;;;;;;;4.80;4.63;;;25.50;65.50;;;;;;5107735;27;43980;-70
2022/07/21 01:28:57;;;;;;;4.90;4.80;;;25.40;65.80;;;;;;5107910;27;43856;-69
2022/07/21 01:31:26;;;;;;;4.63;4.53;;;25.30;66.00;;;;;;5108014;27;44011;-69
2022/07/21 01:33:54;;;;;;;5.10;4.93;;;25.30;66.20;;;;;;5107586;27;44111;-69
2022/07/21 01:36:22;;;;;;;4.60;4.50;;;25.30;66.40;;;;;;5088172;27;44854;-69
2022/07/21 01:41:36;;;;;;;4.82;4.63;;;25.20;66.60;;;;;;5107541;27;43337;-69
2022/07/21 01:44:05;;;;;;;5.10;4.90;;;25.20;66.70;;;;;;5094607;27;45488;-70
2022/07/21 01:46:35;;;;;;;4.97;4.78;;;25.10;66.80;;;;;;5107408;27;43801;-70
2022/07/21 01:49:04;;;;;;;4.93;4.63;;;25.10;67.20;;;;;;5107589;27;44290;-70
2022/07/21 01:51:32;;;;;;;4.38;4.22;;;25.10;67.20;;;;;;5081471;27;43344;-69
2022/07/21 01:54:02;;;;;;;4.80;4.68;;;25.20;67.00;;;;;;5080955;27;44007;-70
2022/07/21 01:56:30;;;;;;;4.65;4.55;;;25.40;66.60;;;;;;5081482;27;43955;-69
2022/07/21 01:58:58;;;;;;;4.53;4.43;;;25.50;65.90;;;;;;5087573;27;43901;-71
2022/07/21 02:01:27;;;;;;;4.60;4.43;;;25.70;65.50;;;;;;5107682;27;44074;-71
2022/07/21 02:03:55;;;;;;;4.40;4.30;;;25.90;64.90;;;;;;5107364;27;43944;-69
2022/07/21 02:06:23;;;;;;;4.43;4.32;;;26.00;64.40;;;;;;5107465;27;43990;-69
2022/07/21 02:08:51;;;;;;;4.60;4.50;;;26.20;64.00;;;;;;5107345;27;44027;-70
2022/07/21 02:11:21;;;;;;;4.13;4.03;;;26.30;63.50;;;;;;5088995;27;43359;-69
2022/07/21 02:13:49;;;;;;;4.50;4.40;;;26.40;63.20;;;;;;5107481;27;43933;-69
2022/07/21 02:16:17;;;;;;;4.68;4.57;;;26.50;62.90;;;;;;5088386;27;46156;-70
2022/07/21 02:18:45;;;;;;;4.57;4.38;;;26.50;62.70;;;;;;5107581;27;43873;-70
2022/07/21 02:21:14;;;;;;;4.40;4.30;;;26.40;62.90;;;;;;5107759;27;43999;-69
2022/07/21 02:23:42;;;;;;;4.55;4.45;;;26.20;63.30;;;;;;5106544;27;43968;-69
2022/07/21 02:26:10;;;;;;;4.65;4.55;;;26.10;63.80;;;;;;5094699;27;43422;-70
2022/07/21 02:28:40;;;;;;;4.30;4.20;;;25.90;64.40;;;;;;5107756;27;43825;-70
2022/07/21 02:31:08;;;;;;;4.38;4.28;;;25.70;65.00;;;;;;5107340;27;43352;-70
2022/07/21 02:33:36;;;;;;;4.40;4.30;;;25.60;65.30;;;;;;5106843;27;43920;-70
2022/07/21 02:36:04;;;;;;;4.32;4.22;;;25.50;65.60;;;;;;5106883;27;43947;-71
2022/07/21 02:38:32;;;;;;;4.60;4.50;;;25.40;65.90;;;;;;5088564;27;43983;-70
2022/07/21 02:41:00;;;;;;;4.90;4.80;;;25.30;66.10;;;;;;5106664;27;43422;-70
2022/07/21 02:43:28;;;;;;;4.10;4.00;;;25.30;66.30;;;;;;5106498;27;43945;-70
2022/07/21 02:45:57;;;;;;;4.40;4.30;;;25.20;66.40;;;;;;5107236;27;44029;-70
2022/07/21 02:48:25;;;;;;;4.20;4.10;;;25.10;66.50;;;;;;5110569;27;43388;-69
2022/07/21 02:50:53;;;;;;;4.50;4.40;;;25.10;66.60;;;;;;5110711;27;43369;-69
2022/07/21 02:53:23;;;;;;;4.40;4.30;;;25.10;66.70;;;;;;5109983;27;44041;-69
2022/07/21 02:55:52;;;;;;;4.35;4.25;;;25.10;66.90;;;;;;5110198;27;43905;-69
2022/07/21 02:58:21;;;;;;;4.53;4.43;;;25.10;67.30;;;;;;5110213;27;43951;-69
2022/07/21 03:00:50;;;;;;;5.32;5.13;;;25.10;67.30;;;;;;5110442;27;43992;-70
2022/07/21 03:03:20;;;;;;;4.93;4.73;;;25.20;67.30;;;;;;5110007;27;44805;-69
2022/07/21 03:05:48;;;;;;;4.55;4.45;;;25.30;66.70;;;;;;5094915;27;43918;-70
2022/07/21 03:08:16;;;;;;;4.57;4.47;;;25.50;66.10;;;;;;5106069;27;43882;-70
2022/07/21 03:10:44;;;;;;;4.80;4.70;;;25.60;65.60;;;;;;5110690;27;44025;-70
2022/07/21 03:13:12;;;;;;;4.68;4.57;;;25.80;65.10;;;;;;5110036;27;45085;-70
2022/07/21 03:15:40;;;;;;;4.80;4.60;;;25.90;64.60;;;;;;5107581;27;44057;-71
2022/07/21 03:18:09;;;;;;;4.57;4.47;;;26.10;64.10;;;;;;5072043;27;43944;-70
2022/07/21 03:20:39;;;;;;;4.20;4.10;;;26.20;63.60;;;;;;5090504;27;43938;-70
2022/07/21 03:23:07;;;;;;;4.53;4.43;;;26.30;63.30;;;;;;5089787;27;43959;-69
2022/07/21 03:25:35;;;;;;;4.50;4.40;;;26.40;63.00;;;;;;5090259;27;43440;-69
2022/07/21 03:28:03;;;;;;;4.13;4.03;;;26.50;62.70;;;;;;5071793;27;44002;-71
2022/07/21 03:30:31;;;;;;;4.60;4.50;;;26.50;62.70;;;;;;5093350;27;43289;-71
2022/07/21 03:32:59;;;;;;;4.55;4.35;;;26.30;63.00;;;;;;5109382;27;44018;-70
2022/07/21 03:35:27;;;;;;;4.40;4.30;;;26.10;63.40;;;;;;5109631;27;43991;-70
2022/07/21 03:37:57;;;;;;;4.45;4.35;;;26.00;64.00;;;;;;5100174;27;44055;-71
2022/07/21 03:40:27;;;;;;;4.60;4.47;;;25.80;64.60;;;;;;5089992;27;43893;-69
2022/07/21 03:42:56;;;;;;;4.53;4.43;;;25.60;64.80;;;;;;5089403;27;43611;-70
2022/07/21 03:45:24;;;;;;;4.80;4.70;;;25.50;65.10;;;;;;5089719;27;43857;-69
2022/07/21 03:47:52;;;;;;;4.78;4.68;;;25.40;65.50;;;;;;5089442;27;44004;-70
2022/07/21 03:50:20;;;;;;;5.03;4.78;;;25.30;65.80;;;;;;5089976;27;44013;-70
2022/07/21 03:52:48;;;;;;;5.32;5.03;;;25.30;66.00;;;;;;5089595;27;43885;-70
2022/07/21 03:55:18;;;;;;;5.82;5.43;;;25.20;66.20;;;;;;5102294;27;43758;-70
2022/07/21 03:57:47;;;;;;;5.57;5.28;;;25.10;66.30;;;;;;5089116;27;44102;-69
2022/07/21 04:00:16;;;;;;;6.20;5.70;;;25.10;66.50;;;;;;5081639;27;44087;-70
2022/07/21 04:02:45;;;;;;;6.13;5.63;;;25.10;66.60;;;;;;5073322;28;44858;-70
2022/07/21 04:05:13;;;;;;;6.75;6.10;;;25.10;66.70;;;;;;5081422;27;45959;-69
2022/07/21 04:07:42;;;;;;;6.90;6.40;;;25.10;66.90;;;;;;5109005;27;44021;-68
2022/07/21 04:10:11;;;;;;;10.05;7.13;;;25.00;67.20;;;;;;5109595;27;44078;-70
2022/07/21 04:12:40;;;;;;;7.55;6.60;;;25.00;67.50;;;;;;5109014;27;43645;-69
2022/07/21 04:15:09;;;;;;;8.95;6.97;;;25.10;67.40;;;;;;5108918;27;43990;-69
2022/07/21 04:17:38;;;;;;;11.77;7.38;;;25.20;67.20;;;;;;5097959;27;43905;-69
2022/07/21 04:20:07;;;;;;;7.30;6.68;;;25.40;67.50;;;;;;5089787;27;44152;-69
2022/07/21 04:22:35;;;;;;;11.82;7.25;;;25.50;66.30;;;;;;5089116;27;43909;-70
2022/07/21 04:25:04;;;;;;;11.57;7.20;;;25.60;65.60;;;;;;5089115;27;43992;-69
2022/07/21 04:27:32;;;;;;;9.77;7.15;;;25.80;65.30;;;;;;5089400;27;43845;-70
2022/07/21 04:30:01;;;;;;;7.50;6.78;;;25.90;64.80;;;;;;5089900;27;44136;-69
2022/07/21 04:32:29;;;;;;;9.38;7.25;;;26.10;64.40;;;;;;5089033;27;43937;-70
2022/07/21 04:34:57;;;;;;;10.32;7.32;;;26.20;63.90;;;;;;5070735;28;45971;-70
2022/07/21 04:37:25;;;;;;;9.85;7.25;;;26.30;63.40;;;;;;5070962;28;43977;-70
2022/07/21 04:39:53;;;;;;;7.72;6.72;;;26.40;63.20;;;;;;5070969;28;44053;-70
2022/07/21 04:42:21;;;;;;;7.53;6.70;;;26.40;63.10;;;;;;5107192;27;44995;-70
2022/07/21 04:44:49;;;;;;;7.13;6.63;;;26.20;63.40;;;;;;5108764;27;44002;-69
2022/07/21 04:47:19;;;;;;;7.32;6.63;;;26.10;63.90;;;;;;5096936;27;43477;-70
2022/07/21 04:49:47;;;;;;;6.80;6.20;;;25.90;65.00;;;;;;5089574;27;44431;-69
2022/07/21 04:52:15;;;;;;;6.90;6.30;;;25.70;65.40;;;;;;5095455;27;44007;-69
2022/07/21 04:54:43;;;;;;;6.60;6.20;;;25.60;65.00;;;;;;5082546;27;45157;-69
2022/07/21 04:57:11;;;;;;;6.72;6.15;;;25.40;65.30;;;;;;5108924;27;43304;-69
2022/07/21 04:59:39;;;;;;;7.13;6.63;;;25.30;65.60;;;;;;5109120;27;43905;-70
2022/07/21 05:02:07;;;;;;;7.97;7.05;;;25.30;66.00;;;;;;5094990;27;43551;-70
2022/07/21 05:04:37;;;;;;;7.40;6.63;;;25.20;66.20;;;;;;5108301;27;43895;-70
2022/07/21 05:07:05;;;;;;;6.70;6.30;;;25.10;66.30;;;;;;5102490;27;44312;-70
2022/07/21 05:09:33;;;;;;;6.60;6.03;;;25.10;66.50;;;;;;5088237;27;43952;-70
2022/07/21 05:12:01;;;;;;;6.72;6.25;;;25.10;66.70;;;;;;5088051;27;43973;-70
2022/07/21 05:14:29;;;;;;;7.03;6.38;;;25.10;66.90;;;;;;5088282;27;43941;-70
2022/07/21 05:16:57;;;;;;;8.90;6.63;;;25.00;66.90;;;;;;5107884;27;43502;-70
2022/07/21 05:19:25;;;;;;;6.97;6.30;;;25.00;67.40;;;;;;5096307;27;43608;-70
2022/07/21 05:21:54;;;;;;;7.03;6.53;;;25.00;67.70;;;;;;5088455;27;43933;-69
2022/07/21 05:24:22;;;;;;;7.37;6.00;;;25.10;67.80;;;;;;5101101;27;43948;-70
2022/07/21 05:26:50;;;;;;;6.80;6.20;;;25.10;67.50;;;;;;5108164;27;43998;-69
2022/07/21 05:29:18;;;;;;;6.85;6.38;;;25.30;67.30;;;;;;5108620;27;43984;-70
2022/07/21 05:31:46;;;;;;;6.80;6.20;;;25.40;66.70;;;;;;5108060;27;43985;-70
2022/07/21 05:34:14;;;;;;;8.40;5.72;;;25.50;66.20;;;;;;5076591;28;44722;-70
2022/07/21 05:36:42;;;;;;;6.78;6.15;;;25.60;65.60;;;;;;5094408;27;43994;-70
2022/07/21 05:39:12;;;;;;;7.57;6.60;;;25.80;65.20;;;;;;5108507;27;44028;-69
2022/07/21 05:41:40;;;;;;;6.65;6.05;;;25.90;64.80;;;;;;5107392;27;44196;-70
2022/07/21 05:44:08;;;;;;;7.32;6.63;;;26.10;65.00;;;;;;5089075;27;45214;-69
2022/07/21 05:46:35;;;;;;;7.22;6.53;;;26.20;63.70;;;;;;5107882;27;44096;-69
2022/07/21 05:49:05;;;;;;;6.53;6.00;;;26.30;63.40;;;;;;5088390;27;43824;-69
2022/07/21 05:51:33;;;;;;;6.70;5.65;;;26.30;62.90;;;;;;5107754;27;43938;-70
2022/07/21 05:54:01;;;;;;;6.28;5.68;;;26.30;63.90;;;;;;5107632;27;43494;-69
2022/07/21 05:56:30;;;;;;;6.57;6.03;;;26.10;63.70;;;;;;5107928;27;43827;-69
2022/07/21 05:58:58;;;;;;;6.68;6.25;;;25.90;64.20;;;;;;5082044;27;44166;-70
2022/07/21 06:01:26;;;;;;;6.28;5.78;;;25.70;64.60;;;;;;5081179;27;44326;-69
2022/07/21 06:03:54;;;;;;;5.55;5.20;;;25.60;65.00;;;;;;5081229;27;43793;-69
2022/07/21 06:06:23;;;;;;;5.72;5.43;;;25.50;65.20;;;;;;5081443;27;43779;-70
2022/07/21 06:08:51;;;;;;;5.95;5.50;;;25.30;65.40;;;;;;5081596;27;43956;-70
2022/07/21 06:11:21;;;;;;;5.85;5.45;;;25.30;65.70;;;;;;5081563;27;43935;-71
2022/07/21 06:13:50;;;;;;;6.45;5.95;;;25.20;65.90;;;;;;5069182;27;44422;-70
2022/07/21 06:16:18;;;;;;;6.18;5.68;;;25.10;66.10;;;;;;5087784;27;43893;-69
2022/07/21 06:18:47;;;;;;;7.20;6.72;;;25.10;66.30;;;;;;5088407;27;43355;-69
2022/07/21 06:21:15;;;;;;;6.13;5.82;;;25.00;66.40;;;;;;5083844;27;45556;-69
2022/07/21 06:23:43;;;;;;;6.40;6.00;;;25.00;66.40;;;;;;5110954;27;44038;-71
2022/07/21 06:26:11;;;;;;;7.30;6.80;;;25.00;66.50;;;;;;5111177;27;43345;-70
2022/07/21 06:28:39;;;;;;;6.75;6.35;;;25.00;66.90;;;;;;5097736;27;43979;-70
2022/07/21 06:31:08;;;;;;;7.53;6.93;;;25.00;67.40;;;;;;5091432;27;44085;-70
2022/07/21 06:33:36;;;;;;;6.97;6.57;;;25.00;67.30;;;;;;5110364;27;43928;-69
2022/07/21 06:36:04;;;;;;;6.37;6.00;;;25.10;67.30;;;;;;5092266;27;44116;-69
2022/07/21 06:38:32;;;;;;;7.47;6.88;;;25.20;66.90;;;;;;5097339;27;43842;-69
2022/07/21 06:41:00;;;;;;;6.73;6.33;;;25.30;66.40;;;;;;5090585;27;44029;-70
2022/07/21 06:43:28;;;;;;;6.67;6.30;;;25.50;65.90;;;;;;5091287;27;43979;-70
2022/07/21 06:45:57;;;;;;;6.80;6.32;;;25.60;65.50;;;;;;5090776;27;44015;-70
2022/07/21 06:48:26;;;;;;;6.55;6.00;;;25.70;65.00;;;;;;5091608;27;43935;-69
2022/07/21 06:50:55;;;;;;;6.75;6.15;;;25.80;64.70;;;;;;5090888;27;44032;-69
2022/07/21 06:53:23;;;;;;;7.00;6.60;;;25.90;64.40;;;;;;5090757;27;44090;-69
2022/07/21 06:55:52;;;;;;;6.93;6.45;;;26.00;64.00;;;;;;5090833;27;44001;-70
2022/07/21 06:58:29;;;;;;;6.35;6.00;;;26.10;63.80;;;;;;5091627;27;43951;-70
2022/07/21 07:01:05;;;;;;;6.47;6.18;;;26.20;63.40;;;;;;5090780;27;44044;-70
2022/07/21 07:03:34;;;;;;;6.78;6.38;;;26.20;63.00;;;;;;5090902;27;43499;-70
2022/07/21 07:06:03;;;;;;;6.20;5.88;;;26.10;63.40;;;;;;5094565;27;43960;-69
2022/07/21 07:08:31;;;;;;;6.25;5.95;;;26.00;63.90;;;;;;5110776;27;43987;-70
2022/07/21 07:10:59;;;;;;;5.80;5.60;;;25.80;64.40;;;;;;5110449;27;44780;-69
2022/07/21 07:13:27;;;;;;;5.78;5.57;;;25.60;64.80;;;;;;5110201;27;43265;-70
2022/07/21 07:16:15;;;;;;;5.50;5.30;;;25.50;65.10;;;;;;5110736;27;43372;-70
2022/07/21 07:18:45;;;;;;;5.83;5.43;;;25.30;65.30;;;;;;5084677;27;43957;-69
2022/07/21 07:21:12;;;;;;;5.88;5.57;;;25.20;65.60;;;;;;5084180;27;43751;-69
2022/07/21 07:23:40;;;;;;;6.03;5.80;;;25.10;65.80;;;;;;5071758;27;45621;-69
2022/07/21 07:26:09;;;;;;;5.63;5.43;;;25.10;66.10;;;;;;5084853;27;44071;-70
2022/07/21 07:28:37;;;;;;;6.33;6.10;;;25.10;66.20;;;;;;5110272;27;43965;-70
2022/07/21 07:31:05;;;;;;;5.80;5.43;;;25.00;66.40;;;;;;5109944;27;43943;-70
2022/07/21 07:33:33;;;;;;;5.55;5.35;;;25.00;66.40;;;;;;5108575;27;43356;-70
2022/07/21 07:36:02;;;;;;;5.77;5.47;;;24.90;66.50;;;;;;5109579;27;44042;-70
2022/07/21 07:38:30;;;;;;;5.40;5.10;;;24.90;66.50;;;;;;5077989;27;43953;-69
2022/07/21 07:40:58;;;;;;;5.50;5.30;;;24.90;66.60;;;;;;5071081;27;45990;-70
2022/07/21 07:43:26;;;;;;;5.40;5.20;;;24.90;66.70;;;;;;5097069;27;43988;-70
2022/07/21 07:45:54;;;;;;;5.30;5.07;;;24.90;66.70;;;;;;5109856;27;43908;-68
2022/07/21 07:48:22;;;;;;;5.50;5.23;;;24.80;66.90;;;;;;5091624;27;44040;-70
2022/07/21 07:50:50;;;;;;;5.50;5.30;;;24.90;67.30;;;;;;5102297;27;44989;-70
2022/07/21 07:53:20;;;;;;;5.43;5.20;;;25.00;67.20;;;;;;5090853;27;43840;-71
2022/07/21 07:55:47;;;;;;;5.30;5.10;;;25.10;66.70;;;;;;5090428;27;43407;-71
2022/07/21 07:58:16;;;;;;;5.43;5.23;;;25.20;66.50;;;;;;5097250;27;43801;-70
2022/07/21 08:00:44;;;;;;;5.50;5.30;;;25.40;65.90;;;;;;5071387;27;46118;-69
2022/07/21 08:03:22;;;;;;;5.70;5.40;;;25.50;65.80;;;;;;5096370;27;43990;-70
2022/07/21 08:05:50;;;;;;;5.07;4.87;;;25.60;65.20;;;;;;5089814;27;43873;-69
2022/07/21 08:08:19;;;;;;;5.50;5.30;;;25.70;64.70;;;;;;5099322;27;43433;-69
2022/07/21 08:10:47;;;;;;;4.95;4.72;;;25.80;64.30;;;;;;5109440;27;44049;-71
2022/07/21 08:13:16;;;;;;;4.97;4.78;;;25.90;64.00;;;;;;5090858;27;45118;-69
2022/07/21 08:15:45;;;;;;;4.70;4.60;;;26.00;63.70;;;;;;5109328;27;43953;-70
2022/07/21 08:18:13;;;;;;;5.07;4.70;;;26.00;63.40;;;;;;5109722;27;43355;-69
2022/07/21 08:20:41;;;;;;;5.63;5.43;;;26.00;64.30;;;;;;5108941;27;43924;-69
2022/07/21 08:23:09;;;;;;;4.90;4.60;;;25.80;64.00;;;;;;5074350;27;44523;-70
2022/07/21 08:25:40;;;;;;;5.13;4.88;;;25.70;64.60;;;;;;5070961;27;43453;-70
2022/07/21 08:28:08;;;;;;;4.50;4.30;;;25.50;64.80;;;;;;5090034;27;43359;-70
2022/07/21 08:30:37;;;;;;;4.68;4.40;;;25.40;64.90;;;;;;5105378;27;43868;-69
2022/07/21 08:33:05;;;;;;;5.00;4.70;;;25.30;65.10;;;;;;5108956;27;44006;-69
2022/07/21 08:35:34;;;;;;;5.15;4.85;;;25.20;65.40;;;;;;5108969;27;43733;-71
2022/07/21 08:38:02;;;;;;;4.60;4.40;;;25.10;65.50;;;;;;5090476;27;44035;-69
2022/07/21 08:40:33;;;;;;;4.60;4.40;;;25.00;65.60;;;;;;5108414;27;44042;-70
2022/07/21 08:43:03;;;;;;;4.60;4.30;;;25.00;65.80;;;;;;5108400;27;43952;-70
2022/07/21 08:45:31;;;;;;;4.93;4.72;;;25.00;65.90;;;;;;5108229;27;44020;-70
2022/07/21 08:47:59;;;;;;;4.45;4.25;;;24.90;65.90;;;;;;5090424;27;43959;-70
2022/07/21 08:50:28;;;;;;;4.63;4.43;;;24.90;66.10;;;;;;5108545;27;43999;-69
2022/07/21 08:52:58;;;;;;;4.33;4.10;;;24.90;66.10;;;;;;5108275;27;43382;-69
2022/07/21 08:55:30;;;;;;;3.97;3.87;;;24.80;66.40;;;;;;5103505;27;43942;-69
2022/07/21 08:57:58;;;;;;;4.50;4.10;;;24.90;67.60;;;;;;5089401;27;43882;-69
2022/07/21 09:00:27;;;;;;;4.27;3.93;;;24.90;66.80;;;;;;5088779;27;44797;-69
2022/07/21 09:03:11;;;;;;;4.57;4.27;;;25.00;66.40;;;;;;5088769;27;44026;-70
2022/07/21 09:05:39;;;;;;;4.20;4.00;;;25.20;66.20;;;;;;5102657;27;44007;-70
2022/07/21 09:08:07;;;;;;;4.10;4.00;;;25.30;65.80;;;;;;5083501;27;44211;-70
2022/07/21 09:10:35;;;;;;;4.20;4.10;;;25.40;65.40;;;;;;5108039;27;44076;-69
2022/07/21 09:13:04;;;;;;;4.17;4.00;;;25.50;64.80;;;;;;5108278;27;44073;-70
2022/07/21 09:15:34;;;;;;;4.47;4.28;;;25.60;64.50;;;;;;5108408;27;43916;-70
2022/07/21 09:18:07;;;;;;;4.40;4.20;;;25.70;64.20;;;;;;5094510;27;43490;-69
2022/07/21 09:20:40;;;;;;;4.30;4.13;;;25.80;63.60;;;;;;5088339;27;45096;-70
2022/07/21 09:23:09;;;;;;;3.95;3.85;;;25.90;63.50;;;;;;5088601;27;43837;-70
2022/07/21 09:25:39;;;;;;;3.70;3.60;;;25.90;63.20;;;;;;5088221;27;43977;-70
2022/07/21 09:28:09;;;;;;;3.80;3.70;;;25.90;62.90;;;;;;5092070;27;43986;-69
2022/07/21 09:30:53;;;;;;;3.60;3.50;;;25.90;63.20;;;;;;5098253;27;44074;-70
2022/07/21 09:33:27;;;;;;;3.83;3.67;;;25.70;63.70;;;;;;5088462;27;43952;-69
2022/07/21 09:36:00;;;;;;;4.30;4.10;;;25.50;64.20;;;;;;5088417;27;44001;-70
2022/07/21 09:38:28;;;;;;;3.77;3.67;;;25.40;64.10;;;;;;5082578;27;43877;-70
2022/07/21 09:41:04;;;;;;;3.75;3.65;;;25.30;64.20;;;;;;5087544;27;44032;-69
2022/07/21 09:43:41;;;;;;;3.80;3.70;;;25.20;64.40;;;;;;5102777;27;43921;-70
2022/07/21 09:46:13;;;;;;;3.60;3.35;;;25.10;64.40;;;;;;5107712;27;43861;-69
2022/07/21 09:48:42;;;;;;;3.60;3.50;;;25.00;64.50;;;;;;5107988;27;43928;-69
2022/07/21 09:51:20;;;;;;;3.80;3.70;;;25.00;64.60;;;;;;5107632;27;44807;-69
2022/07/21 09:53:50;;;;;;;3.67;3.58;;;24.90;64.80;;;;;;5107851;27;43761;-70
2022/07/21 09:56:18;;;;;;;3.50;3.40;;;24.90;64.70;;;;;;5107017;27;43359;-70
2022/07/21 09:58:47;;;;;;;3.97;3.78;;;24.90;64.80;;;;;;5089607;27;43971;-70
2022/07/21 10:01:16;;;;;;;3.40;3.30;;;24.90;64.80;;;;;;5107564;27;45287;-70
2022/07/21 10:03:45;;;;;;;3.58;3.45;;;24.90;64.90;;;;;;5102411;27;43945;-70
2022/07/21 10:06:13;;;;;;;3.77;3.60;;;24.80;65.90;;;;;;5087936;27;43884;-70
2022/07/21 10:08:41;;;;;;;3.67;3.57;;;24.80;65.90;;;;;;5108057;27;43904;-70
2022/07/21 10:11:09;;;;;;;3.60;3.40;;;24.90;66.20;;;;;;5107612;27;43991;-70
2022/07/21 10:13:45;;;;;;;3.50;3.40;;;25.00;66.20;;;;;;5107805;27;43947;-69
2022/07/21 10:16:13;;;;;;;3.60;3.50;;;25.10;65.80;;;;;;5107725;27;43288;-70
2022/07/21 10:19:11;;;;;;;4.27;4.03;;;25.20;65.30;;;;;;5108090;27;43992;-70
2022/07/21 10:21:42;;;;;;;3.60;3.50;;;25.30;64.70;;;;;;5089181;27;45581;-69
2022/07/21 10:24:11;;;;;;;3.40;3.30;;;25.50;64.40;;;;;;5107286;27;43903;-70
2022/07/21 10:26:39;;;;;;;3.50;3.40;;;25.50;63.70;;;;;;5107325;27;43990;-70
2022/07/21 10:29:07;;;;;;;3.60;3.50;;;25.60;63.10;;;;;;5107843;27;43856;-70
2022/07/21 10:31:37;;;;;;;3.90;3.60;;;25.80;62.60;;;;;;5107177;27;43978;-69
2022/07/21 10:34:07;;;;;;;3.88;3.63;;;25.90;62.30;;;;;;5094931;27;44074;-70
2022/07/21 10:36:44;;;;;;;3.72;3.63;;;26.00;62.20;;;;;;5092518;27;43965;-69
2022/07/21 10:39:26;;;;;;;3.70;3.60;;;26.00;62.00;;;;;;5088967;27;43853;-70
2022/07/21 10:41:55;;;;;;;3.60;3.50;;;25.90;62.30;;;;;;5106758;27;43959;-70
2022/07/21 10:44:44;;;;;;;3.67;3.58;;;25.80;62.90;;;;;;5106884;27;44012;-69
2022/07/21 10:47:12;;;;;;;3.97;3.78;;;25.60;63.10;;;;;;5107098;27;44040;-70
2022/07/21 10:49:53;;;;;;;3.53;3.42;;;25.50;62.70;;;;;;5107482;27;43899;-70
2022/07/21 10:52:58;;;;;;;3.90;3.80;;;25.30;62.80;;;;;;5087603;27;43953;-70
2022/07/21 10:55:27;;;;;;;3.65;3.55;;;25.20;63.00;;;;;;5104993;27;44411;-70
2022/07/21 10:58:15;;;;;;;4.13;3.92;;;25.10;63.30;;;;;;5088503;27;43928;-69
2022/07/21 11:00:48;;;;;;;3.53;3.43;;;25.10;63.50;;;;;;5081738;27;43997;-69
2022/07/21 11:03:18;;;;;;;3.92;3.83;;;25.00;63.50;;;;;;5088537;27;43899;-70
2022/07/21 11:06:16;;;;;;;3.55;3.45;;;25.00;63.70;;;;;;5091943;27;44097;-70
2022/07/21 11:08:45;;;;;;;3.80;3.70;;;24.90;63.80;;;;;;5100419;27;43910;-69
2022/07/21 11:11:13;;;;;;;3.67;3.58;;;24.90;63.80;;;;;;5092066;27;44068;-69
2022/07/21 11:14:04;;;;;;;3.90;3.70;;;24.90;63.90;;;;;;5091401;27;43915;-70
2022/07/21 11:17:07;;;;;;;4.00;3.80;;;24.90;63.70;;;;;;5096362;27;44003;-68
2022/07/21 11:19:38;;;;;;;4.03;3.83;;;24.80;64.00;;;;;;5103612;27;43911;-69
2022/07/21 11:22:10;;;;;;;4.30;4.20;;;24.80;65.10;;;;;;5091022;27;44007;-70
2022/07/21 11:24:39;;;;;;;4.10;3.90;;;24.90;65.40;;;;;;5090338;27;44011;-70
2022/07/21 11:27:08;;;;;;;4.00;3.90;;;24.90;65.40;;;;;;5090239;27;43793;-69
2022/07/21 11:29:38;;;;;;;3.70;3.60;;;25.00;65.20;;;;;;5090331;27;43961;-69
2022/07/21 11:32:07;;;;;;;3.83;3.67;;;25.20;64.90;;;;;;5090719;27;44019;-70
2022/07/21 11:34:46;;;;;;;3.88;3.78;;;25.30;64.50;;;;;;5090333;27;43943;-70
2022/07/21 11:37:16;;;;;;;3.72;3.53;;;25.40;64.00;;;;;;5089968;27;43888;-69
2022/07/21 11:40:02;;;;;;;4.57;4.27;;;25.50;63.60;;;;;;5090165;27;44044;-70
2022/07/21 11:42:30;;;;;;;3.70;3.60;;;25.60;63.30;;;;;;5103671;27;43977;-69
2022/07/21 11:44:58;;;;;;;4.43;4.07;;;25.70;63.20;;;;;;5102905;27;44058;-70
2022/07/21 11:47:27;;;;;;;3.95;3.80;;;25.70;62.90;;;;;;5109668;27;44020;-70
2022/07/21 11:49:55;;;;;;;4.13;3.92;;;25.80;62.50;;;;;;5083291;27;44296;-70
2022/07/21 11:52:27;;;;;;;3.92;3.67;;;25.80;62.40;;;;;;5097240;27;44332;-69
2022/07/21 11:54:55;;;;;;;3.65;3.55;;;25.70;62.10;;;;;;5090244;27;43845;-69
2022/07/21 11:57:24;;;;;;;4.10;3.70;;;25.60;62.70;;;;;;5090129;27;43999;-69
2022/07/21 11:59:52;;;;;;;4.05;3.85;;;25.50;62.90;;;;;;5096245;27;43887;-69
2022/07/21 12:02:20;;;;;;;4.03;3.83;;;25.30;63.00;;;;;;5110423;27;43461;-69
2022/07/21 12:04:50;;;;;;;3.60;3.33;;;25.30;63.50;;;;;;5109704;27;43627;-69
2022/07/21 12:07:21;;;;;;;3.83;3.73;;;25.10;63.80;;;;;;5083491;27;46233;-69
2022/07/21 12:09:51;;;;;;;3.70;3.60;;;25.10;64.10;;;;;;5089964;27;44015;-70
2022/07/21 12:12:33;;;;;;;3.80;3.70;;;25.00;64.40;;;;;;5089836;27;43879;-70
2022/07/21 12:15:15;;;;;;;3.40;3.30;;;25.00;64.70;;;;;;5089396;27;43959;-69
2022/07/21 12:17:44;;;;;;;3.80;3.60;;;24.90;64.80;;;;;;5094647;27;43388;-69
2022/07/21 12:20:13;;;;;;;3.80;3.70;;;24.90;65.00;;;;;;5108153;27;43948;-69
2022/07/21 12:22:43;;;;;;;3.93;3.83;;;24.90;65.10;;;;;;5096241;27;43905;-69
2022/07/21 12:25:12;;;;;;;3.70;3.60;;;24.90;65.40;;;;;;5108927;27;43983;-71
2022/07/21 12:27:41;;;;;;;3.70;3.60;;;24.80;66.10;;;;;;5108761;27;43896;-70
2022/07/21 12:30:11;;;;;;;3.63;3.53;;;24.80;66.40;;;;;;5090486;27;43943;-69
2022/07/21 12:32:41;;;;;;;3.70;3.50;;;24.90;66.40;;;;;;5109726;27;43959;-70
2022/07/21 12:35:18;;;;;;;3.83;3.70;;;25.00;66.40;;;;;;5081970;27;44031;-69
2022/07/21 12:38:03;;;;;;;3.73;3.63;;;25.10;66.00;;;;;;5089444;27;43370;-70
2022/07/21 12:40:33;;;;;;;3.60;3.50;;;25.20;65.60;;;;;;5099247;27;43961;-70
2022/07/21 12:43:10;;;;;;;3.77;3.67;;;25.30;65.10;;;;;;5109153;27;44064;-70
2022/07/21 12:45:55;;;;;;;3.87;3.77;;;25.40;64.80;;;;;;5108767;27;43891;-70
2022/07/21 12:48:24;;;;;;;3.70;3.60;;;25.50;64.50;;;;;;5108501;27;43987;-71
2022/07/21 12:51:10;;;;;;;3.65;3.55;;;25.60;64.30;;;;;;5108692;27;43903;-70
2022/07/21 12:53:40;;;;;;;3.40;3.30;;;25.70;64.10;;;;;;5072625;27;43997;-70
2022/07/21 12:56:10;;;;;;;3.43;3.33;;;25.70;63.70;;;;;;5094533;27;44046;-70
2022/07/21 12:58:38;;;;;;;3.88;3.78;;;25.80;63.40;;;;;;5089166;27;43447;-69
2022/07/21 13:01:06;;;;;;;3.42;3.33;;;25.90;63.20;;;;;;5105928;27;43781;-70
2022/07/21 13:03:34;;;;;;;3.43;3.33;;;25.90;63.40;;;;;;5109413;27;43912;-70